createdAt,value
2022-09-22T00:00:13.668Z,67.40
2022-09-22T00:01:02.013Z,67.30
2022-09-22T00:01:37.578Z,67.10
2022-09-22T00:02:09.484Z,67.10
2022-09-22T00:02:41.294Z,67.40
2022-09-22T00:03:13.071Z,67.20
2022-09-22T00:03:50.654Z,68.10
2022-09-22T00:04:22.433Z,67.20
2022-09-22T00:04:54.217Z,67.20
2022-09-22T00:05:26.177Z,67.10
2022-09-22T00:06:03.680Z,67.20
2022-09-22T00:06:38.921Z,67.20
2022-09-22T00:07:10.772Z,67.30
2022-09-22T00:07:42.531Z,67.30
2022-09-22T00:08:14.320Z,67.30
2022-09-22T00:08:48.907Z,67.20
2022-09-22T00:09:21.653Z,67.00
2022-09-22T00:09:53.676Z,67.20
2022-09-22T00:10:25.480Z,67.10
2022-09-22T00:11:20.265Z,67.30
2022-09-22T00:11:53.922Z,67.10
2022-09-22T00:12:25.783Z,67.70
2022-09-22T00:12:57.642Z,67.10
2022-09-22T00:13:30.941Z,67.00
2022-09-22T00:14:10.397Z,66.90
2022-09-22T00:14:42.310Z,67.00
2022-09-22T00:15:14.316Z,67.10
2022-09-22T00:15:46.832Z,66.40
2022-09-22T00:16:22.367Z,67.40
2022-09-22T00:17:01.040Z,67.00
2022-09-22T00:17:33.003Z,66.90
2022-09-22T00:18:04.767Z,67.30
2022-09-22T00:18:36.716Z,67.10
2022-09-22T00:19:10.630Z,67.00
2022-09-22T00:19:42.557Z,67.00
2022-09-22T00:20:14.631Z,67.00
2022-09-22T00:20:46.480Z,67.10
2022-09-22T00:21:20.513Z,66.60
2022-09-22T00:21:53.024Z,67.00
2022-09-22T00:22:25.990Z,67.20
2022-09-22T00:22:57.774Z,67.20
2022-09-22T00:23:29.877Z,67.10
2022-09-22T00:24:03.070Z,67.20
2022-09-22T00:24:35.191Z,67.30
2022-09-22T00:25:08.814Z,67.20
2022-09-22T00:25:41.218Z,67.10
2022-09-22T00:26:17.223Z,67.20
2022-09-22T00:26:49.894Z,67.20
2022-09-22T00:27:21.737Z,67.10
2022-09-22T00:27:54.494Z,67.30
2022-09-22T00:28:26.454Z,65.80
2022-09-22T00:29:01.399Z,67.30
2022-09-22T00:29:33.409Z,67.30
2022-09-22T00:30:07.059Z,67.30
2022-09-22T00:30:42.994Z,67.10
2022-09-22T00:31:18.941Z,67.20
2022-09-22T00:31:51.861Z,67.20
2022-09-22T00:32:23.656Z,67.30
2022-09-22T00:32:55.433Z,67.30
2022-09-22T00:33:27.176Z,67.20
2022-09-22T00:33:59.030Z,67.30
2022-09-22T00:34:30.820Z,67.30
2022-09-22T00:35:02.661Z,67.30
2022-09-22T00:35:38.041Z,67.30
2022-09-22T00:36:10.250Z,67.20
2022-09-22T00:36:43.016Z,67.30
2022-09-22T00:37:14.949Z,67.30
2022-09-22T00:37:46.816Z,67.30
2022-09-22T00:38:18.559Z,67.30
2022-09-22T00:38:54.413Z,67.30
2022-09-22T00:39:27.513Z,67.20
2022-09-22T00:39:59.262Z,67.40
2022-09-22T00:40:32.358Z,67.40
2022-09-22T00:41:05.383Z,67.30
2022-09-22T00:41:41.860Z,66.90
2022-09-22T00:42:13.938Z,67.40
2022-09-22T00:42:45.895Z,67.40
2022-09-22T00:43:21.259Z,67.40
2022-09-22T00:44:33.985Z,66.70
2022-09-22T00:45:06.334Z,67.40
2022-09-22T00:45:38.277Z,67.40
2022-09-22T00:46:10.167Z,67.30
2022-09-22T00:46:45.880Z,67.40
2022-09-22T00:47:29.524Z,66.80
2022-09-22T00:48:01.665Z,67.30
2022-09-22T00:48:39.582Z,67.40
2022-09-22T00:49:15.372Z,67.40
2022-09-22T00:50:00.042Z,68.00
2022-09-22T00:50:32.424Z,67.20
2022-09-22T00:51:08.655Z,67.40
2022-09-22T00:51:44.046Z,67.40
2022-09-22T00:52:27.381Z,67.40
2022-09-22T00:53:19.415Z,67.40
2022-09-22T00:53:53.796Z,67.30
2022-09-22T00:54:26.122Z,67.40
2022-09-22T00:55:02.737Z,66.80
2022-09-22T00:55:37.350Z,67.30
2022-09-22T00:56:14.754Z,67.30
2022-09-22T00:56:57.334Z,67.40
2022-09-22T00:57:34.359Z,67.40
2022-09-22T00:58:09.871Z,67.40
2022-09-22T00:58:49.538Z,67.50
2022-09-22T00:59:26.209Z,67.00
2022-09-22T00:59:59.394Z,67.40
2022-09-22T01:00:31.383Z,67.50
2022-09-22T01:01:04.275Z,66.90
2022-09-22T01:01:36.885Z,67.50
2022-09-22T01:02:09.094Z,67.10
2022-09-22T01:02:41.852Z,67.60
2022-09-22T01:03:19.781Z,67.60
2022-09-22T01:03:51.907Z,67.60
2022-09-22T01:04:24.191Z,67.00
2022-09-22T01:04:56.957Z,67.50
2022-09-22T01:05:31.838Z,67.50
2022-09-22T01:06:06.770Z,67.50
2022-09-22T01:06:40.823Z,67.00
2022-09-22T01:07:13.067Z,67.60
2022-09-22T01:07:49.829Z,67.00
2022-09-22T01:08:24.974Z,67.60
2022-09-22T01:08:58.423Z,67.60
2022-09-22T01:09:34.310Z,67.60
2022-09-22T01:10:07.671Z,67.60
2022-09-22T01:10:40.312Z,67.70
2022-09-22T01:11:15.653Z,67.20
2022-09-22T01:11:47.603Z,67.00
2022-09-22T01:12:19.935Z,67.70
2022-09-22T01:13:20.232Z,67.60
2022-09-22T01:14:07.438Z,67.50
2022-09-22T01:14:42.065Z,67.50
2022-09-22T01:15:28.439Z,67.00
2022-09-22T01:16:12.061Z,68.00
2022-09-22T01:16:49.794Z,67.50
2022-09-22T01:17:33.519Z,67.40
2022-09-22T01:18:19.900Z,67.50
2022-09-22T01:19:25.909Z,67.50
2022-09-22T01:20:19.731Z,67.40
2022-09-22T01:21:15.959Z,67.40
2022-09-22T01:22:03.746Z,67.40
2022-09-22T01:23:00.407Z,67.00
2022-09-22T01:23:44.585Z,67.30
2022-09-22T01:24:31.129Z,67.50
2022-09-22T01:25:33.392Z,66.60
2022-09-22T01:26:24.136Z,67.30
2022-09-22T01:27:07.789Z,66.90
2022-09-22T01:27:56.594Z,67.40
2022-09-22T01:28:50.084Z,67.40
2022-09-22T01:29:46.257Z,67.30
2022-09-22T01:30:22.356Z,69.10
2022-09-22T01:31:12.059Z,67.40
2022-09-22T01:32:07.192Z,67.30
2022-09-22T01:32:58.413Z,67.40
2022-09-22T01:33:50.518Z,66.80
2022-09-22T01:34:37.259Z,67.10
2022-09-22T01:35:55.227Z,67.20
2022-09-22T01:36:51.322Z,67.20
2022-09-22T01:37:56.215Z,67.20
2022-09-22T01:38:52.210Z,67.10
2022-09-22T01:39:38.001Z,67.10
2022-09-22T01:40:17.938Z,67.40
2022-09-22T01:41:00.156Z,67.40
2022-09-22T01:41:34.682Z,67.10
2022-09-22T01:42:19.562Z,66.80
2022-09-22T01:43:00.646Z,67.40
2022-09-22T01:43:38.397Z,67.40
2022-09-22T01:44:22.237Z,67.40
2022-09-22T01:45:12.051Z,66.80
2022-09-22T01:45:48.721Z,67.30
2022-09-22T01:46:41.213Z,67.30
2022-09-22T01:47:24.541Z,67.30
2022-09-22T01:48:09.082Z,67.50
2022-09-22T01:49:20.620Z,66.80
2022-09-22T01:49:58.114Z,67.20
2022-09-22T01:50:43.489Z,66.70
2022-09-22T01:51:27.697Z,66.80
2022-09-22T01:52:07.938Z,67.10
2022-09-22T01:52:42.489Z,67.30
2022-09-22T01:53:18.629Z,66.90
2022-09-22T01:54:19.453Z,67.30
2022-09-22T01:55:06.080Z,67.10
2022-09-22T01:55:41.558Z,67.20
2022-09-22T01:56:16.341Z,68.00
2022-09-22T01:56:57.793Z,66.90
2022-09-22T01:58:12.020Z,66.90
2022-09-22T02:40:15.721Z,65.40
2022-09-22T02:42:33.617Z,65.50
2022-09-22T02:43:14.223Z,65.50
2022-09-22T02:45:59.447Z,65.60
2022-09-22T11:31:55.793Z,72.00
2022-09-22T11:32:36.522Z,72.10
2022-09-22T11:33:36.026Z,72.20
2022-09-22T11:34:56.144Z,72.10
2022-09-22T11:48:32.886Z,71.50
2022-09-22T11:49:38.134Z,71.50
2022-09-22T11:50:18.455Z,71.60
2022-09-22T11:51:11.805Z,71.40
2022-09-22T11:52:47.890Z,71.20
2022-09-22T11:54:11.140Z,71.10
2022-09-22T12:25:44.683Z,69.70
2022-09-22T12:54:23.068Z,65.40
2022-09-22T12:55:18.518Z,65.60
2022-09-22T12:55:54.663Z,66.00
2022-09-22T12:56:46.441Z,65.80
2022-09-22T12:57:23.351Z,65.70
2022-09-22T12:58:01.303Z,65.40
2022-09-22T12:58:33.022Z,65.50
2022-09-22T12:59:36.624Z,65.70
2022-09-22T13:00:20.540Z,66.30
2022-09-22T13:00:55.392Z,66.00
2022-09-22T13:01:32.839Z,66.10
2022-09-22T13:02:15.684Z,66.00
2022-09-22T13:02:49.735Z,66.00
2022-09-22T13:03:27.342Z,66.00
2022-09-22T13:04:25.374Z,65.90
2022-09-22T13:05:00.607Z,65.90
2022-09-22T13:05:34.423Z,65.50
2022-09-22T13:06:21.937Z,65.40
2022-09-22T13:06:55.986Z,65.40
2022-09-22T13:08:18.268Z,65.50
2022-09-22T13:08:52.801Z,65.20
2022-09-22T13:09:26.955Z,64.90
2022-09-22T13:10:26.518Z,64.60
2022-09-22T13:11:01.192Z,64.60
2022-09-22T13:12:11.518Z,65.00
2022-09-22T13:13:39.759Z,64.80
2022-09-22T13:14:57.660Z,64.70
2022-09-22T13:15:47.266Z,64.80
2022-09-22T13:16:52.552Z,64.50
2022-09-22T13:17:46.459Z,64.40
2022-09-22T13:18:40.264Z,64.50
2022-09-22T13:19:57.556Z,64.00
2022-09-22T13:20:34.222Z,64.20
2022-09-22T13:21:14.979Z,64.60
2022-09-22T13:21:48.022Z,64.60
2022-09-22T13:22:20.520Z,64.60
2022-09-22T13:24:00.677Z,65.20
2022-09-22T13:25:31.151Z,64.80
2022-09-22T13:26:41.799Z,64.10
2022-09-22T13:27:14.661Z,63.90
2022-09-22T13:27:46.431Z,63.90
2022-09-22T13:28:21.345Z,63.60
2022-09-22T13:29:18.412Z,64.00
2022-09-22T13:29:59.408Z,64.70
2022-09-22T13:30:32.204Z,64.30
2022-09-22T13:31:16.031Z,64.00
2022-09-22T13:31:55.411Z,64.50
2022-09-22T13:32:28.394Z,64.20
2022-09-22T13:33:00.533Z,63.70
2022-09-22T13:33:34.993Z,63.40
2022-09-22T13:34:25.143Z,63.40
2022-09-22T13:34:56.909Z,63.60
2022-09-22T13:36:19.759Z,63.00
2022-09-22T13:48:21.758Z,63.40
2022-09-22T13:49:55.854Z,62.90
2022-09-22T13:50:27.580Z,63.00
2022-09-22T13:54:31.436Z,61.90
2022-09-22T13:55:23.588Z,62.40
2022-09-22T13:57:04.913Z,62.10
2022-09-22T13:58:16.329Z,62.30
2022-09-22T13:58:51.495Z,62.10
2022-09-22T14:00:00.502Z,61.30
2022-09-22T14:01:01.493Z,61.30
2022-09-22T14:01:32.618Z,61.10
2022-09-22T14:02:11.271Z,61.80
2022-09-22T14:02:45.212Z,61.90
2022-09-22T14:03:21.637Z,62.30
2022-09-22T14:03:55.173Z,62.60
2022-09-22T14:04:27.965Z,62.40
2022-09-22T14:05:07.908Z,62.20
2022-09-22T14:05:49.852Z,62.10
2022-09-22T14:09:03.611Z,62.20
2022-09-22T14:10:48.707Z,62.80
2022-09-22T14:11:30.768Z,62.40
2022-09-22T14:12:03.446Z,62.00
2022-09-22T14:12:35.742Z,62.20
2022-09-22T14:14:03.454Z,62.20
2022-09-22T14:14:35.729Z,62.40
2022-09-22T14:15:32.363Z,62.20
2022-09-22T14:16:13.098Z,62.20
2022-09-22T14:50:27.428Z,60.60
2022-09-22T15:17:56.513Z,59.00
2022-09-22T16:25:56.188Z,62.10
2022-09-22T16:27:02.064Z,62.20
2022-09-22T16:27:34.167Z,62.40
2022-09-22T16:29:44.112Z,62.50
2022-09-22T16:32:58.221Z,62.50
2022-09-22T16:33:30.121Z,62.60
2022-09-22T16:34:35.930Z,62.50
2022-09-22T16:35:41.663Z,62.60
2022-09-22T16:36:13.433Z,62.70
2022-09-22T16:36:46.117Z,62.70
2022-09-22T16:39:33.455Z,62.80
2022-09-22T16:40:37.772Z,62.80
2022-09-22T16:41:18.497Z,62.80
2022-09-22T16:42:23.863Z,62.80
2022-09-22T16:42:56.020Z,63.00
2022-09-22T16:44:01.187Z,63.00
2022-09-22T16:45:05.517Z,62.90
2022-09-22T16:46:30.600Z,63.10
2022-09-22T16:49:16.307Z,62.80
2022-09-22T16:50:23.098Z,63.00
2022-09-22T16:51:28.138Z,63.00
2022-09-22T16:52:00.600Z,63.20
2022-09-22T16:53:07.185Z,63.10
2022-09-22T16:53:39.520Z,63.10
2022-09-22T16:54:46.318Z,63.00
2022-09-22T16:55:18.051Z,63.00
2022-09-22T16:56:27.327Z,63.10
2022-09-22T16:56:59.140Z,63.30
2022-09-22T16:57:30.914Z,63.20
2022-09-22T16:58:37.860Z,63.50
2022-09-22T16:59:09.996Z,63.40
2022-09-22T16:59:41.793Z,63.60
2022-09-22T17:02:26.210Z,63.30
2022-09-22T17:02:58.058Z,63.30
2022-09-22T17:05:41.711Z,63.10
2022-09-22T17:06:16.062Z,63.30
2022-09-22T17:06:48.906Z,63.50
2022-09-22T17:07:20.645Z,63.60
2022-09-22T17:08:27.652Z,63.50
2022-09-22T17:09:00.056Z,63.70
2022-09-22T17:09:32.193Z,63.70
2022-09-22T17:10:06.365Z,63.60
2022-09-22T17:12:51.854Z,63.40
2022-09-22T17:13:27.817Z,63.40
2022-09-22T17:14:02.926Z,63.60
2022-09-22T17:15:12.030Z,63.40
2022-09-22T17:17:06.355Z,63.60
2022-09-22T17:17:40.333Z,63.70
2022-09-22T17:19:20.670Z,63.40
2022-09-22T17:19:52.485Z,63.50
2022-09-22T17:20:56.631Z,63.60
2022-09-22T17:22:38.320Z,63.50
2022-09-22T17:23:10.119Z,63.70
2022-09-22T17:23:41.865Z,63.80
2022-09-22T17:24:14.809Z,63.70
2022-09-22T17:25:51.675Z,63.60
2022-09-22T17:26:58.115Z,63.70
2022-09-22T17:27:29.940Z,64.00
2022-09-22T17:28:01.935Z,64.00
2022-09-22T17:28:34.606Z,64.10
2022-09-22T17:29:06.551Z,64.10
2022-09-22T17:29:38.624Z,64.00
2022-09-22T17:31:14.993Z,64.10
2022-09-22T17:31:49.831Z,63.90
2022-09-22T17:32:23.405Z,64.00
2022-09-22T17:32:55.402Z,63.90
2022-09-22T17:33:28.593Z,64.00
2022-09-22T17:35:11.784Z,64.00
2022-09-22T17:35:43.611Z,64.20
2022-09-22T17:36:19.905Z,64.20
2022-09-22T17:37:58.097Z,63.90
2022-09-22T17:40:15.533Z,64.00
2022-09-22T17:40:47.468Z,64.10
2022-09-22T17:41:23.005Z,64.00
2022-09-22T17:42:59.814Z,63.90
2022-09-22T17:44:38.498Z,64.00
2022-09-22T17:45:42.781Z,64.00
2022-09-22T17:48:11.610Z,64.30
2022-09-22T17:51:59.315Z,64.10
2022-09-22T17:53:22.170Z,64.10
2022-09-22T18:03:26.458Z,63.50
2022-09-22T18:05:41.043Z,63.20
2022-09-22T18:08:32.249Z,63.10
2022-09-22T18:12:56.813Z,62.90
2022-09-22T18:21:33.998Z,62.60
2022-09-22T18:22:47.785Z,62.70
2022-09-22T18:31:45.285Z,62.50
2022-09-22T18:32:19.962Z,62.70
2022-09-22T18:38:19.718Z,62.40
2022-09-22T18:39:27.546Z,62.50
2022-09-22T18:39:59.313Z,62.50
2022-09-22T18:42:14.996Z,62.40
2022-09-22T18:48:57.353Z,62.40
2022-09-22T18:51:49.717Z,62.30
2022-09-22T18:52:23.730Z,62.40
2022-09-22T18:52:56.595Z,62.50
2022-09-22T18:53:28.397Z,62.60
2022-09-22T18:54:40.435Z,62.50
2022-09-22T18:56:56.577Z,62.40
2022-09-22T19:00:45.514Z,62.50
2022-09-22T19:01:18.258Z,62.60
2022-09-22T19:02:23.476Z,62.50
2022-09-22T19:03:27.627Z,62.60
2022-09-22T19:04:32.386Z,62.60
2022-09-22T19:05:04.641Z,62.70
2022-09-22T19:08:48.849Z,62.90
2022-09-22T19:10:59.851Z,62.50
2022-09-22T19:12:09.563Z,62.70
2022-09-22T19:14:21.037Z,62.50
2022-09-22T19:20:28.398Z,62.50
2022-09-22T20:22:21.192Z,63.30
2022-09-22T20:44:38.475Z,63.50
2022-09-22T20:59:49.898Z,63.80
2022-09-22T21:00:22.278Z,64.10
2022-09-22T21:00:55.654Z,64.10
2022-09-22T21:02:00.813Z,64.10
2022-09-22T21:02:32.885Z,64.00
2022-09-22T21:03:04.682Z,64.20
2022-09-22T21:04:14.128Z,64.20
2022-09-22T21:25:34.974Z,64.30
2022-09-22T21:26:40.561Z,64.50
2022-09-22T21:27:46.998Z,64.90
2022-09-22T21:29:23.890Z,64.60
2022-09-22T21:29:55.943Z,64.60
2022-09-22T21:30:27.661Z,64.70
2022-09-22T21:33:44.607Z,64.60
2022-09-22T21:36:17.294Z,64.60
2022-09-22T21:40:10.104Z,64.80
2022-09-22T21:45:02.414Z,64.70
2022-09-22T21:45:34.189Z,64.70
2022-09-22T21:50:37.485Z,64.70
2022-09-22T21:59:22.603Z,64.80
2022-09-22T22:12:09.237Z,65.00
2022-09-22T22:12:41.069Z,65.00
2022-09-22T22:13:46.559Z,65.10
2022-09-22T22:14:19.901Z,65.10
2022-09-22T22:14:51.665Z,65.50
2022-09-22T22:15:24.031Z,65.60
2022-09-22T22:15:59.802Z,65.50
2022-09-22T22:16:44.230Z,65.50
2022-09-22T22:17:15.960Z,65.60
2022-09-22T22:17:47.694Z,65.60
2022-09-22T22:18:20.386Z,65.70
2022-09-22T22:18:52.617Z,65.70
2022-09-22T22:19:26.846Z,65.80
2022-09-22T22:19:58.684Z,66.00
2022-09-22T22:20:30.984Z,65.90
2022-09-22T22:21:08.894Z,65.90
2022-09-22T22:21:42.796Z,66.00
2022-09-22T22:22:47.242Z,65.90
2022-09-22T22:23:55.509Z,66.00
2022-09-22T22:24:30.603Z,66.20
2022-09-22T22:25:04.868Z,66.20
2022-09-22T22:25:37.129Z,66.00
2022-09-22T22:26:21.460Z,66.00
2022-09-22T22:26:57.061Z,66.30
2022-09-22T22:27:29.045Z,66.30
2022-09-22T22:28:00.889Z,66.40
2022-09-22T22:28:32.962Z,67.00
2022-09-22T22:29:04.836Z,66.30
2022-09-22T22:29:40.601Z,65.20
2022-09-22T22:30:13.204Z,66.40
2022-09-22T22:30:45.004Z,66.30
2022-09-22T22:31:19.679Z,66.40
2022-09-22T22:31:52.306Z,66.50
2022-09-22T22:32:24.074Z,67.10
2022-09-22T22:32:55.925Z,66.70
2022-09-22T22:33:27.734Z,66.60
2022-09-22T22:33:59.449Z,66.60
2022-09-22T22:34:31.273Z,66.60
2022-09-22T22:35:03.059Z,66.60
2022-09-22T22:35:34.807Z,67.20
2022-09-22T22:36:08.727Z,66.70
2022-09-22T22:36:41.765Z,66.60
2022-09-22T22:37:13.600Z,66.60
2022-09-22T22:37:46.652Z,66.70
2022-09-22T22:38:18.398Z,64.90
2022-09-22T22:38:52.550Z,67.30
2022-09-22T22:39:24.667Z,67.30
2022-09-22T22:39:56.420Z,67.30
2022-09-22T22:40:28.185Z,66.70
2022-09-22T22:41:06.710Z,66.80
2022-09-22T22:42:11.430Z,66.70
2022-09-22T22:42:43.157Z,66.80
2022-09-22T22:43:16.797Z,67.30
2022-09-22T22:43:48.511Z,67.30
2022-09-22T22:44:20.458Z,66.80
2022-09-22T22:44:52.193Z,66.70
2022-09-22T22:45:24.051Z,66.70
2022-09-22T22:45:56.630Z,66.90
2022-09-22T22:46:29.806Z,67.60
2022-09-22T22:47:01.637Z,66.90
2022-09-22T22:47:34.807Z,66.90
2022-09-22T22:48:06.579Z,66.90
2022-09-22T22:48:38.786Z,67.70
2022-09-22T22:49:13.828Z,66.90
2022-09-22T22:49:45.638Z,66.90
2022-09-22T22:50:17.371Z,66.80
2022-09-22T22:50:49.191Z,66.90
2022-09-22T22:51:21.733Z,67.00
2022-09-22T22:51:53.733Z,68.20
2022-09-22T22:52:25.513Z,67.00
2022-09-22T22:52:57.336Z,67.60
2022-09-22T22:53:29.131Z,66.80
2022-09-22T22:54:01.003Z,67.50
2022-09-22T22:54:32.752Z,67.70
2022-09-22T22:55:05.108Z,67.20
2022-09-22T22:55:38.375Z,67.10
2022-09-22T22:56:16.600Z,67.50
2022-09-22T22:56:51.228Z,67.20
2022-09-22T22:57:23.569Z,67.60
2022-09-22T22:57:55.330Z,67.00
2022-09-22T22:58:30.974Z,67.10
2022-09-22T22:59:02.750Z,67.10
2022-09-22T22:59:35.694Z,67.70
2022-09-22T23:00:08.296Z,67.60
2022-09-22T23:00:40.122Z,67.10
2022-09-22T23:01:23.330Z,67.70
2022-09-22T23:01:55.159Z,67.30
2022-09-22T23:02:30.261Z,67.20
2022-09-22T23:03:01.999Z,68.00
2022-09-22T23:03:33.862Z,67.70
2022-09-22T23:04:07.518Z,67.80
2022-09-22T23:04:39.424Z,67.80
2022-09-22T23:05:12.124Z,67.80
2022-09-22T23:05:44.646Z,67.70
2022-09-22T23:06:19.490Z,67.20
2022-09-22T23:06:51.653Z,67.70
2022-09-22T23:07:23.386Z,67.70
2022-09-22T23:07:55.439Z,67.80
2022-09-22T23:08:28.303Z,67.30
2022-09-22T23:09:00.378Z,67.80
2022-09-22T23:09:32.090Z,67.20
2022-09-22T23:10:06.951Z,67.80
2022-09-22T23:10:38.709Z,67.80
2022-09-22T23:11:17.196Z,69.80
2022-09-22T23:11:49.035Z,67.80
2022-09-22T23:12:53.402Z,67.30
2022-09-22T23:13:26.862Z,68.00
2022-09-22T23:14:03.820Z,67.80
2022-09-22T23:14:36.929Z,67.80
2022-09-22T23:15:09.767Z,67.90
2022-09-22T23:15:41.841Z,65.60
2022-09-22T23:16:14.258Z,67.90
2022-09-22T23:16:49.453Z,67.90
2022-09-22T23:17:21.144Z,67.80
2022-09-22T23:17:52.991Z,67.80
2022-09-22T23:18:24.767Z,67.30
2022-09-22T23:18:59.615Z,67.50
2022-09-22T23:19:31.374Z,68.00
2022-09-22T23:20:06.089Z,68.10
2022-09-22T23:20:37.891Z,67.90
2022-09-22T23:21:12.319Z,67.30
2022-09-22T23:21:45.132Z,67.40
2022-09-22T23:23:23.104Z,67.30
2022-09-22T23:23:54.907Z,67.90
2022-09-22T23:24:26.673Z,68.10
2022-09-22T23:24:59.272Z,67.40
2022-09-22T23:25:33.795Z,68.20
2022-09-22T23:26:07.024Z,67.90
2022-09-22T23:26:40.444Z,67.80
2022-09-22T23:27:12.174Z,68.00
2022-09-22T23:27:48.326Z,67.30
2022-09-22T23:28:20.582Z,67.90
2022-09-22T23:28:52.662Z,67.40
2022-09-22T23:29:24.415Z,67.90
2022-09-22T23:29:57.137Z,67.90
2022-09-22T23:30:29.025Z,67.40
2022-09-22T23:31:03.623Z,68.00
2022-09-22T23:31:35.391Z,67.80
2022-09-22T23:32:07.141Z,68.20
2022-09-22T23:32:40.577Z,68.00
2022-09-22T23:33:12.527Z,68.20
2022-09-22T23:33:46.461Z,67.40
2022-09-22T23:34:19.182Z,67.60
2022-09-22T23:34:50.965Z,67.00
2022-09-22T23:35:22.713Z,67.50
2022-09-22T23:35:59.682Z,68.10
2022-09-22T23:36:31.499Z,68.30
2022-09-22T23:37:03.363Z,67.40
2022-09-22T23:37:35.154Z,68.10
2022-09-22T23:38:09.082Z,68.20
2022-09-22T23:38:41.291Z,67.50
2022-09-22T23:39:13.148Z,68.10
2022-09-22T23:39:44.874Z,68.50
2022-09-22T23:40:16.964Z,68.20
2022-09-22T23:40:48.746Z,68.20
2022-09-22T23:41:21.525Z,67.60
2022-09-22T23:41:53.236Z,68.30
2022-09-22T23:42:25.142Z,67.80
2022-09-22T23:42:59.746Z,67.70
2022-09-22T23:43:33.044Z,68.10
2022-09-22T23:44:08.391Z,68.40
2022-09-22T23:44:40.252Z,68.10
2022-09-22T23:45:11.991Z,67.50
2022-09-22T23:45:43.743Z,68.10
2022-09-22T23:46:15.593Z,67.50
2022-09-22T23:46:47.383Z,67.50
2022-09-22T23:47:19.481Z,67.60
2022-09-22T23:47:51.755Z,67.60
2022-09-22T23:48:24.782Z,67.60
2022-09-22T23:48:56.566Z,67.50
2022-09-22T23:49:28.351Z,67.40
2022-09-22T23:50:00.270Z,67.40
2022-09-22T23:50:32.086Z,67.50
2022-09-22T23:51:04.446Z,67.40
2022-09-22T23:51:36.848Z,67.10
2022-09-22T23:52:41.391Z,66.90
2022-09-22T23:53:14.952Z,66.90
2022-09-22T23:53:46.698Z,67.00
2022-09-22T23:54:18.440Z,67.10
2022-09-22T23:54:50.224Z,67.10
2022-09-22T23:55:22.783Z,67.10
2022-09-22T23:55:54.727Z,67.20
2022-09-22T23:56:26.732Z,66.90
2022-09-22T23:56:58.471Z,67.00
2022-09-22T23:57:30.240Z,67.10
2022-09-22T23:58:02.007Z,67.30
2022-09-22T23:58:34.623Z,67.30
2022-09-22T23:59:06.920Z,67.30
2022-09-22T23:59:41.481Z,67.40
